Time;durP1;ratioP1;P1;durP2;ratioP2;P2;SDS_P1;SDS_P2;PMS_P1;PMS_P2;Temp;Humidity;BMP_temperature;BMP_pressure;BME280_temperature;BME280_humidity;BME280_pressure;Samples;Min_cycle;Max_cycle;Signal;HPM_P1;HPM_P2
2022/08/14 00:02:07;;;;;;;16.53;13.20;;;;;;;20.44;92.06;98152.59;4978985;28;20226;-88
2022/08/14 00:04:34;;;;;;;16.13;13.53;;;;;;;20.51;92.79;98185.94;4976819;28;20168;-88
2022/08/14 00:06:59;;;;;;;17.17;13.60;;;;;;;22.18;95.18;98463.84;4978234;28;20164;-88
2022/08/14 00:09:25;;;;;;;17.63;14.13;;;;;;;19.23;97.02;97970.25;4961879;28;20239;-89
2022/08/14 00:11:51;;;;;;;17.47;13.43;;;;;;;20.22;95.79;98107.50;4980334;28;20180;-87
2022/08/14 00:14:17;;;;;;;18.13;14.07;;;;;;;21.87;95.35;98349.28;5001204;28;20210;-88
2022/08/14 00:16:43;;;;;;;16.57;14.30;;;;;;;21.04;94.22;98186.78;4968675;28;20691;-89
2022/08/14 00:19:09;;;;;;;18.70;14.40;;;;;;;20.38;96.21;98114.97;4986475;28;21017;-90
2022/08/14 00:21:35;;;;;;;18.20;14.70;;;;;;;22.45;98.40;98484.00;4982783;28;20172;-88
2022/08/14 00:24:03;;;;;;;16.70;13.77;;;;;;;20.75;98.29;98215.56;4984407;28;20171;-88
2022/08/14 00:26:29;;;;;;;17.60;14.20;;;;;;;20.57;98.47;98167.00;5001651;28;20232;-87
2022/08/14 00:28:54;;;;;;;16.43;13.50;;;;;;;21.34;96.26;98255.78;4986165;28;20172;-87
2022/08/14 00:31:20;;;;;;;18.80;14.30;;;;;;;21.52;96.88;98288.91;4984978;28;20639;-87
2022/08/14 00:33:46;;;;;;;17.23;13.93;;;;;;;20.87;96.84;98196.50;4986904;28;20604;-89
2022/08/14 00:36:11;;;;;;;16.07;13.67;;;;;;;21.34;95.24;98230.03;4986548;28;20196;-89
2022/08/14 00:38:37;;;;;;;15.90;13.97;;;;;;;20.62;93.32;98103.47;4967869;28;20182;-87
2022/08/14 00:41:05;;;;;;;15.90;13.47;;;;;;;20.82;92.35;98121.13;5000485;28;20295;-89
2022/08/14 00:43:32;;;;;;;16.53;13.97;;;;;;;20.88;92.63;98141.56;4983886;28;20163;-89
2022/08/14 00:46:04;;;;;;;16.93;14.00;;;;;;;19.79;91.64;97946.34;4990427;28;20198;-87
2022/08/14 00:48:30;;;;;;;18.87;14.37;;;;;;;21.14;92.51;98190.91;4999149;28;20176;-87
2022/08/14 00:50:56;;;;;;;16.43;13.33;;;;;;;21.13;91.83;98153.16;4982063;28;20239;-88
2022/08/14 00:53:22;;;;;;;17.60;14.60;;;;;;;20.91;91.61;98139.81;4981822;28;20250;-89
2022/08/14 00:55:49;;;;;;;16.70;14.27;;;;;;;21.49;93.92;98264.94;4988767;28;20168;-88
2022/08/14 00:58:31;;;;;;;16.97;14.53;;;;;;;20.37;95.07;98092.75;4986554;28;20180;-88
2022/08/14 01:01:04;;;;;;;17.27;14.27;;;;;;;22.63;96.06;98465.63;4989207;28;20167;-89
2022/08/14 01:03:30;;;;;;;16.47;14.43;;;;;;;22.55;97.24;98466.63;4988307;28;20172;-89
2022/08/14 01:05:57;;;;;;;17.67;14.60;;;;;;;20.91;95.27;98168.09;4987970;28;20179;-88
2022/08/14 01:08:28;;;;;;;18.33;14.13;;;;;;;21.22;94.06;98217.38;4989125;28;20172;-89
2022/08/14 01:10:55;;;;;;;19.27;14.03;;;;;;;20.99;93.24;98188.56;4989019;28;20169;-89
2022/08/14 01:13:37;;;;;;;20.47;14.03;;;;;;;21.06;93.13;98182.44;4968085;28;20192;-90
2022/08/14 01:16:07;;;;;;;16.70;13.53;;;;;;;22.91;91.84;98450.41;4987212;28;20223;-89
2022/08/14 01:21:24;;;;;;;18.37;13.63;;;;;;;22.31;91.67;98331.22;4989281;28;20200;-89
2022/08/14 01:23:52;;;;;;;18.90;14.23;;;;;;;22.07;91.89;98295.63;4991205;28;20171;-91
2022/08/14 01:26:22;;;;;;;17.83;14.77;;;;;;;23.09;91.97;98456.94;4991627;28;20188;-89
2022/08/14 01:28:56;;;;;;;18.77;14.90;;;;;;;22.98;92.96;98448.56;4974567;28;20183;-90
2022/08/14 01:31:30;;;;;;;17.50;14.63;;;;;;;21.58;94.98;98249.31;4987114;28;20155;-90
2022/08/14 01:33:57;;;;;;;19.13;14.53;;;;;;;21.26;94.53;98193.25;4983302;28;20230;-88
2022/08/14 01:36:25;;;;;;;17.53;14.47;;;;;;;22.79;94.90;98459.28;4986503;28;20167;-88
2022/08/14 01:38:54;;;;;;;16.40;13.93;;;;;;;20.95;94.83;98163.78;4985826;28;20628;-87
2022/08/14 01:41:21;;;;;;;23.30;15.53;;;;;;;20.54;94.59;98092.47;4969905;28;20239;-88
2022/08/14 01:44:00;;;;;;;18.53;14.93;;;;;;;22.75;93.75;98457.63;4986503;28;20160;-88
2022/08/14 01:46:28;;;;;;;20.30;14.67;;;;;;;22.43;92.00;98386.88;4986553;28;20708;-87
2022/08/14 01:48:55;;;;;;;18.83;14.77;;;;;;;22.15;92.65;98389.13;4985479;28;20264;-88
2022/08/14 01:51:23;;;;;;;17.27;14.13;;;;;;;20.67;93.60;98132.53;4987922;28;20179;-88
2022/08/14 01:53:56;;;;;;;17.83;14.63;;;;;;;22.05;94.87;98346.38;4985051;28;20196;-89
2022/08/14 01:56:37;;;;;;;18.10;14.60;;;;;;;21.01;94.64;98174.78;4984655;28;20171;-88
2022/08/14 01:59:30;;;;;;;19.30;14.97;;;;;;;22.70;94.75;98462.03;4984082;28;20167;-88
2022/08/14 02:01:55;;;;;;;19.07;15.20;;;;;;;21.46;94.39;98240.09;4988106;28;20191;-89
2022/08/14 02:04:24;;;;;;;16.50;14.60;;;;;;;22.24;93.86;98370.94;4986031;28;20172;-88
2022/08/14 02:06:51;;;;;;;20.10;15.37;;;;;;;22.84;92.83;98462.63;4985328;28;20172;-89
2022/08/14 02:09:17;;;;;;;20.40;15.30;;;;;;;22.84;93.02;98457.44;4984162;28;20238;-88
2022/08/14 02:11:43;;;;;;;17.43;14.37;;;;;;;22.52;92.48;98402.19;4985821;28;20168;-89
2022/08/14 02:14:11;;;;;;;18.90;14.80;;;;;;;22.91;89.88;98445.25;4984679;28;20251;-88
2022/08/14 02:16:43;;;;;;;19.83;15.00;;;;;;;22.08;88.94;98307.66;4988690;28;20200;-88
2022/08/14 02:19:13;;;;;;;16.77;14.60;;;;;;;20.11;89.02;97961.22;4987288;28;20219;-87
2022/08/14 02:21:39;;;;;;;19.37;15.50;;;;;;;20.96;88.04;98098.53;4986908;28;20168;-88
2022/08/14 02:24:06;;;;;;;18.87;15.07;;;;;;;23.01;88.43;98438.16;4987415;28;20604;-87
2022/08/14 02:26:34;;;;;;;18.97;14.83;;;;;;;22.96;89.42;98445.16;4986426;28;20231;-88
2022/08/14 02:29:22;;;;;;;19.97;15.93;;;;;;;23.10;88.08;98438.00;4988854;28;20195;-89
2022/08/14 02:31:50;;;;;;;18.67;15.17;;;;;;;22.53;90.13;98390.97;4987928;28;20320;-88
2022/08/14 02:34:21;;;;;;;18.67;14.87;;;;;;;21.92;91.25;98289.03;4987658;28;20195;-88
2022/08/14 02:36:50;;;;;;;24.93;16.87;;;;;;;22.47;94.41;98435.78;4989078;28;20167;-88
2022/08/14 02:39:16;;;;;;;21.10;15.83;;;;;;;21.69;96.72;98332.41;4988925;28;20262;-88
2022/08/14 02:41:42;;;;;;;20.00;15.50;;;;;;;20.45;97.40;98123.47;4990235;28;20303;-89
2022/08/14 02:44:10;;;;;;;18.07;15.07;;;;;;;21.22;99.22;98304.88;4988985;28;20555;-88
2022/08/14 02:46:37;;;;;;;20.23;15.03;;;;;;;19.81;100.00;98078.16;4988935;28;20176;-87
2022/08/14 02:49:05;;;;;;;22.83;15.80;;;;;;;19.57;100.00;98044.25;4988605;28;20164;-89
2022/08/14 02:51:31;;;;;;;20.30;15.37;;;;;;;19.88;100.00;98120.88;4987155;28;20164;-87
2022/08/14 02:53:57;;;;;;;20.70;16.07;;;;;;;21.70;100.00;98419.09;4984134;28;20215;-87
2022/08/14 02:56:24;;;;;;;20.03;14.90;;;;;;;21.72;100.00;98414.81;4984875;28;20168;-88
2022/08/14 02:58:50;;;;;;;21.40;15.80;;;;;;;21.69;100.00;98402.81;4985132;28;20168;-88
2022/08/14 03:01:18;;;;;;;21.33;15.43;;;;;;;22.00;100.00;98421.19;4984070;28;20173;-88
2022/08/14 03:03:47;;;;;;;20.40;15.57;;;;;;;21.20;99.12;98265.47;4991283;28;20167;-89
2022/08/14 03:06:13;;;;;;;20.97;15.17;;;;;;;20.89;98.61;98211.03;4989202;28;20232;-88
2022/08/14 03:08:40;;;;;;;20.23;15.23;;;;;;;20.62;100.00;98223.47;4992954;28;20156;-84
2022/08/14 03:11:09;;;;;;;20.30;15.73;;;;;;;21.87;100.00;98416.28;5000991;28;20183;-84
2022/08/14 03:13:46;;;;;;;20.87;15.47;;;;;;;21.96;100.00;98424.72;5001457;28;20258;-86
2022/08/14 03:16:15;;;;;;;19.50;15.33;;;;;;;19.79;100.00;98074.75;4983311;28;20238;-87
2022/08/14 03:18:42;;;;;;;20.57;15.90;;;;;;;19.71;100.00;98073.16;4987156;28;20176;-86
2022/08/14 03:21:12;;;;;;;20.93;15.50;;;;;;;21.80;100.00;98417.25;4987666;28;20179;-88
2022/08/14 03:23:46;;;;;;;19.23;15.27;;;;;;;20.59;100.00;98194.38;4972401;28;20263;-88
2022/08/14 03:26:14;;;;;;;21.33;15.60;;;;;;;19.97;100.00;98107.88;4988749;28;20174;-87
2022/08/14 03:28:42;;;;;;;21.63;15.90;;;;;;;21.18;100.00;98339.25;4992847;28;20160;-85
2022/08/14 03:31:09;;;;;;;20.90;16.47;;;;;;;21.04;100.00;98370.31;4999393;28;20160;-87
2022/08/14 03:33:36;;;;;;;21.13;16.03;;;;;;;19.85;100.00;98204.81;4999945;28;20207;-87
2022/08/14 03:36:11;;;;;;;20.77;16.10;;;;;;;21.23;100.00;98401.84;4997852;28;20185;-88
2022/08/14 03:38:45;;;;;;;21.77;16.53;;;;;;;20.57;100.00;98293.00;4981661;28;20202;-88
2022/08/14 03:41:15;;;;;;;21.57;16.00;;;;;;;20.38;100.00;98261.50;5000101;28;20231;-88
2022/08/14 03:43:43;;;;;;;21.83;16.73;;;;;;;21.31;100.00;98414.59;4991745;28;20153;-88
2022/08/14 03:46:10;;;;;;;22.90;17.03;;;;;;;20.07;100.00;98208.81;4991542;28;20262;-89
2022/08/14 03:48:36;;;;;;;24.07;17.23;;;;;;;18.88;100.00;98021.16;4991459;28;20203;-89
2022/08/14 03:51:02;;;;;;;21.87;16.80;;;;;;;21.02;100.00;98351.50;4992052;28;20168;-89
2022/08/14 03:53:27;;;;;;;23.87;17.20;;;;;;;19.28;100.00;98054.91;4991449;28;20195;-90
2022/08/14 03:55:55;;;;;;;24.57;17.20;;;;;;;21.78;100.00;98443.03;5004939;28;20175;-88
2022/08/14 03:58:21;;;;;;;22.93;17.00;;;;;;;20.76;100.00;98260.13;4973043;28;20164;-90
2022/08/14 04:00:46;;;;;;;23.87;17.33;;;;;;;21.01;100.00;98302.63;4989308;28;20255;-90
2022/08/14 04:03:13;;;;;;;22.50;17.53;;;;;;;21.89;100.00;98441.19;5004732;28;20204;-89
2022/08/14 04:05:40;;;;;;;24.33;17.33;;;;;;;21.73;100.00;98389.00;4987239;28;20172;-89
2022/08/14 04:08:07;;;;;;;23.30;17.37;;;;;;;19.62;100.00;98033.06;4988694;28;20165;-90
2022/08/14 04:10:33;;;;;;;24.53;17.67;;;;;;;21.30;100.00;98331.34;4987861;28;20239;-89
2022/08/14 04:13:01;;;;;;;26.50;18.83;;;;;;;19.84;100.00;98102.94;4971168;28;20164;-88
2022/08/14 04:15:26;;;;;;;24.47;17.60;;;;;;;20.68;100.00;98207.97;4989522;28;20280;-89
2022/08/14 04:17:52;;;;;;;22.43;17.60;;;;;;;19.86;100.00;98088.38;4988769;28;20168;-89
2022/08/14 04:20:19;;;;;;;21.83;17.33;;;;;;;21.85;100.00;98469.53;4970573;28;20186;-90
2022/08/14 04:22:45;;;;;;;22.80;17.20;;;;;;;19.64;100.00;98107.50;4967544;28;20223;-89
2022/08/14 04:25:10;;;;;;;22.80;17.13;;;;;;;18.67;100.00;97882.97;4981531;28;20160;-88
2022/08/14 04:27:36;;;;;;;23.10;17.23;;;;;;;22.09;100.00;98438.22;4987087;28;20701;-88
2022/08/14 04:30:04;;;;;;;21.67;17.20;;;;;;;22.20;100.00;98468.09;4992950;28;20176;-88
2022/08/14 04:32:32;;;;;;;23.60;17.63;;;;;;;20.58;100.00;98190.09;4991196;28;20179;-88
2022/08/14 04:34:58;;;;;;;22.73;16.77;;;;;;;22.02;100.00;98452.13;4990927;28;20192;-89
2022/08/14 04:45:42;;;;;;;25.43;18.00;;;;;;;21.97;100.00;98451.34;4994187;28;20248;-88
2022/08/14 04:48:11;;;;;;;22.53;17.23;;;;;;;22.10;100.00;98445.09;4989357;28;20180;-88
2022/08/14 04:50:43;;;;;;;23.83;16.67;;;;;;;22.22;100.00;98450.88;4992325;28;20253;-88
2022/08/14 04:53:11;;;;;;;21.70;16.50;;;;;;;21.60;100.00;98337.72;4988645;28;20164;-88
2022/08/14 04:55:38;;;;;;;21.37;16.83;;;;;;;20.57;100.00;98157.53;4990301;28;20187;-87
2022/08/14 04:58:04;;;;;;;21.60;16.00;;;;;;;21.78;100.00;98333.06;4987261;28;20156;-86
2022/08/14 05:00:31;;;;;;;23.00;16.17;;;;;;;22.52;100.00;98449.47;4990810;28;20182;-86
2022/08/14 05:02:57;;;;;;;21.30;16.30;;;;;;;20.19;100.00;98062.16;4984774;28;20284;-86
2022/08/14 05:05:23;;;;;;;21.13;15.43;;;;;;;20.91;100.00;98195.56;4983386;28;20179;-85
2022/08/14 05:07:50;;;;;;;20.47;16.50;;;;;;;21.35;100.00;98266.91;4979324;28;20152;-84
2022/08/14 05:10:15;;;;;;;20.23;16.00;;;;;;;21.36;100.00;98255.72;4978855;28;20165;-85
2022/08/14 05:12:41;;;;;;;23.33;16.33;;;;;;;22.39;100.00;98439.41;4978594;28;20167;-84
2022/08/14 05:15:07;;;;;;;21.10;16.00;;;;;;;21.31;100.00;98227.50;4978910;28;20192;-85
2022/08/14 05:17:32;;;;;;;22.73;16.57;;;;;;;21.95;97.33;98296.72;4977756;28;20160;-85
2022/08/14 05:20:01;;;;;;;19.43;16.10;;;;;;;22.91;96.58;98438.34;4977475;28;20183;-85
2022/08/14 05:22:27;;;;;;;21.90;16.63;;;;;;;22.15;96.86;98327.25;4978153;28;20156;-85
2022/08/14 05:24:52;;;;;;;20.80;15.67;;;;;;;21.92;98.69;98321.72;4978254;28;20223;-84
2022/08/14 05:27:19;;;;;;;22.13;16.20;;;;;;;22.68;94.57;98347.69;4977878;28;20243;-85
2022/08/14 05:29:47;;;;;;;19.70;16.13;;;;;;;22.96;92.39;98383.22;4974796;28;20168;-85
2022/08/14 05:32:13;;;;;;;21.83;15.90;;;;;;;23.17;92.84;98442.97;4978179;28;20160;-85
2022/08/14 05:34:39;;;;;;;21.57;16.30;;;;;;;23.12;93.39;98434.47;4987900;28;20175;-84
2022/08/14 05:37:04;;;;;;;19.80;15.67;;;;;;;22.18;91.54;98242.13;4987823;28;20178;-84
2022/08/14 05:39:30;;;;;;;22.00;15.80;;;;;;;23.37;89.68;98433.09;4981922;28;20160;-85
2022/08/14 05:41:55;;;;;;;19.83;16.10;;;;;;;23.29;87.51;98361.78;4981528;28;20223;-84
2022/08/14 05:44:21;;;;;;;21.13;16.10;;;;;;;23.20;86.76;98343.91;4962730;28;20691;-85
2022/08/14 05:46:46;;;;;;;22.50;16.07;;;;;;;23.42;91.05;98441.56;4963470;28;20278;-86
2022/08/14 05:49:13;;;;;;;21.73;15.57;;;;;;;22.01;91.62;98259.66;4979392;28;20164;-86
2022/08/14 05:51:39;;;;;;;20.10;16.20;;;;;;;22.97;93.21;98405.53;4980224;28;20168;-85
2022/08/14 05:54:06;;;;;;;20.83;15.37;;;;;;;22.65;97.42;98452.69;4980042;28;20198;-86
2022/08/14 05:56:31;;;;;;;20.93;16.03;;;;;;;22.49;99.59;98444.38;4981013;28;20543;-86
2022/08/14 05:58:58;;;;;;;18.97;14.83;;;;;;;22.41;100.00;98446.25;4995703;28;20244;-85
2022/08/14 06:01:23;;;;;;;21.33;15.60;;;;;;;21.43;100.00;98296.78;4979053;28;20634;-84
2022/08/14 06:03:49;;;;;;;22.93;16.07;;;;;;;19.71;100.00;98055.19;4981956;28;20219;-87
2022/08/14 06:06:14;;;;;;;22.43;16.27;;;;;;;20.85;100.00;98218.84;4987951;28;20168;-87
2022/08/14 06:08:40;;;;;;;23.17;16.10;;;;;;;20.53;100.00;98162.75;4987327;28;20171;-86
2022/08/14 06:11:06;;;;;;;22.63;14.70;;;;;;;22.23;100.00;98446.56;4987743;28;20168;-90
2022/08/14 06:13:34;;;;;;;21.97;15.57;;;;;;;22.18;100.00;98450.97;4985900;28;20664;-87
2022/08/14 06:16:00;;;;;;;24.67;16.23;;;;;;;22.65;100.00;98456.13;4970900;28;20298;-88
2022/08/14 06:18:25;;;;;;;25.03;17.60;;;;;;;22.63;99.67;98418.28;4984346;28;20160;-87
2022/08/14 06:20:51;;;;;;;22.30;16.10;;;;;;;21.94;96.84;98237.47;4986723;28;20175;-88
2022/08/14 06:23:17;;;;;;;22.13;16.63;;;;;;;22.00;97.26;98294.91;4983067;28;20164;-87
2022/08/14 06:25:43;;;;;;;21.10;16.10;;;;;;;23.00;95.63;98410.66;4979573;28;20179;-86
2022/08/14 06:28:18;;;;;;;19.00;14.83;;;;;;;22.49;93.46;98346.34;4981279;28;20178;-86
2022/08/14 06:30:44;;;;;;;19.27;15.07;;;;;;;22.94;95.33;98452.94;4981133;28;20164;-86
2022/08/14 06:33:10;;;;;;;22.60;15.30;;;;;;;23.18;94.36;98467.94;4985271;28;20165;-87
2022/08/14 06:35:35;;;;;;;20.47;16.07;;;;;;;22.44;97.67;98386.88;4981512;28;20671;-88
2022/08/14 06:38:00;;;;;;;21.90;16.90;;;;;;;22.03;100.00;98350.72;4982357;28;20188;-85
2022/08/14 06:40:29;;;;;;;19.10;16.00;;;;;;;22.04;100.00;98375.59;4956580;28;20237;-86
2022/08/14 06:42:57;;;;;;;20.67;15.80;;;;;;;22.69;99.49;98467.25;4976373;28;20183;-85
2022/08/14 06:45:23;;;;;;;18.47;15.37;;;;;;;22.18;96.76;98386.50;4977299;28;20178;-85
2022/08/14 06:47:48;;;;;;;20.13;15.37;;;;;;;22.50;96.05;98440.03;4980004;28;20668;-87
2022/08/14 06:50:17;;;;;;;19.43;15.67;;;;;;;22.88;94.89;98451.31;4979261;28;20202;-86
2022/08/14 06:52:43;;;;;;;20.57;16.63;;;;;;;22.46;95.49;98389.41;4979968;28;20182;-86
2022/08/14 06:55:12;;;;;;;22.20;16.37;;;;;;;21.38;94.20;98220.50;4979456;28;20283;-87
2022/08/14 06:57:41;;;;;;;19.43;15.50;;;;;;;22.84;94.22;98472.09;4980589;28;20204;-87
2022/08/14 07:00:10;;;;;;;19.30;15.97;;;;;;;23.15;88.94;98437.00;4968372;28;20179;-87
2022/08/14 07:08:05;;;;;;;20.07;16.00;;;;;;;23.59;88.68;98455.84;4983817;28;20195;-87
2022/08/14 07:10:32;;;;;;;19.27;15.50;;;;;;;23.42;88.70;98438.13;4981357;28;20628;-85
2022/08/14 07:12:58;;;;;;;22.60;17.70;;;;;;;24.18;85.21;98459.53;4980645;28;20199;-86
2022/08/14 07:15:23;;;;;;;21.37;16.20;;;;;;;23.03;83.46;98269.44;4979847;28;20195;-87
2022/08/14 07:18:08;;;;;;;21.60;16.90;;;;;;;23.89;81.72;98373.22;4983741;28;20191;-87
2022/08/14 07:20:41;;;;;;;19.80;15.40;;;;;;;20.90;82.88;97921.16;4989735;28;20159;-87
2022/08/14 07:23:07;;;;;;;19.03;15.17;;;;;;;23.53;87.04;98458.56;5013675;28;20262;-86
2022/08/14 07:25:34;;;;;;;19.47;15.17;;;;;;;21.39;84.05;98053.13;4987484;28;20198;-85
2022/08/14 07:28:07;;;;;;;22.07;16.57;;;;;;;22.15;79.63;98102.97;4999828;28;20160;-87
2022/08/14 07:30:35;;;;;;;17.33;15.00;;;;;;;23.09;86.72;98437.13;4999610;28;20167;-87
2022/08/14 07:33:02;;;;;;;19.27;15.87;;;;;;;21.33;89.06;98120.19;5000256;28;20168;-86
2022/08/14 07:35:28;;;;;;;19.10;14.80;;;;;;;20.99;88.41;98098.50;5000482;28;20231;-88
2022/08/14 07:37:53;;;;;;;17.83;13.93;;;;;;;20.92;91.08;98145.81;5001852;28;20167;-88
2022/08/14 07:40:18;;;;;;;19.47;14.83;;;;;;;20.06;90.66;97973.28;5001743;28;20227;-88
2022/08/14 07:42:44;;;;;;;18.00;13.73;;;;;;;21.04;92.86;98191.94;5000434;28;20568;-88
2022/08/14 07:45:10;;;;;;;18.00;13.37;;;;;;;18.85;96.40;97887.84;5002059;28;20183;-89
2022/08/14 07:47:43;;;;;;;18.37;13.97;;;;;;;22.20;98.65;98499.03;4985739;28;20702;-86
2022/08/14 07:50:14;;;;;;;19.17;14.50;;;;;;;19.89;100.00;98135.38;5002061;28;20186;-86
2022/08/14 07:52:49;;;;;;;19.60;14.93;;;;;;;21.05;100.00;98355.72;5010639;28;20186;-87
2022/08/14 07:55:17;;;;;;;22.60;15.10;;;;;;;17.19;100.00;97813.63;5019768;28;20205;-83
2022/08/14 07:57:44;;;;;;;20.90;15.63;;;;;;;19.93;100.00;98352.00;5016795;28;20248;-86
2022/08/14 08:00:18;;;;;;;24.13;16.77;;;;;;;18.33;100.00;98107.09;4983352;28;20622;-85
2022/08/14 08:02:48;;;;;;;24.20;16.00;;;;;;;19.94;100.00;98421.31;4966082;28;20235;-83
2022/08/14 08:05:14;;;;;;;22.33;16.27;;;;;;;20.09;100.00;98453.75;4982097;28;20668;-86
2022/08/14 08:07:41;;;;;;;28.20;17.43;;;;;;;19.55;100.00;98369.47;4993031;28;20191;-86
2022/08/14 08:10:31;;;;;;;30.70;18.13;;;;;;;17.62;100.00;98075.16;5006952;28;20183;-88
2022/08/14 08:12:58;;;;;;;28.63;17.93;;;;;;;20.14;100.00;98471.69;4997846;28;20211;-88
2022/08/14 08:15:25;;;;;;;27.20;19.27;;;;;;;19.50;100.00;98389.22;4985683;28;20560;-88
2022/08/14 08:17:51;;;;;;;24.57;18.03;;;;;;;19.96;100.00;98477.84;4966875;28;20192;-87
2022/08/14 08:20:19;;;;;;;26.13;18.00;;;;;;;18.77;100.00;98364.00;4988282;28;20187;-89
2022/08/14 08:22:47;;;;;;;27.47;18.97;;;;;;;19.23;100.00;98470.63;4987038;28;20180;-89
2022/08/14 08:25:13;;;;;;;27.80;19.27;;;;;;;17.25;100.00;98102.56;4986584;28;20164;-87
2022/08/14 08:27:39;;;;;;;26.70;18.17;;;;;;;19.59;100.00;98484.97;4989852;28;20183;-88
2022/08/14 08:30:11;;;;;;;28.10;19.50;;;;;;;19.84;100.00;98483.94;4989322;28;20570;-87
2022/08/14 08:32:41;;;;;;;30.10;19.63;;;;;;;19.83;100.00;98402.59;4982469;28;20215;-89
2022/08/14 08:35:17;;;;;;;32.13;21.07;;;;;;;20.17;100.00;98480.22;4983169;28;20267;-88
2022/08/14 08:37:43;;;;;;;29.37;19.90;;;;;;;19.74;100.00;98412.13;4982006;28;20183;-87
2022/08/14 08:40:09;;;;;;;30.23;21.60;;;;;;;19.75;100.00;98327.34;4983281;28;20293;-86
2022/08/14 08:42:34;;;;;;;34.80;22.13;;;;;;;19.69;100.00;98314.56;4977739;28;20200;-85
2022/08/14 08:45:00;;;;;;;33.07;23.17;;;;;;;20.96;100.00;98484.53;4978381;28;20204;-86
2022/08/14 08:47:36;;;;;;;32.20;21.60;;;;;;;21.09;100.00;98480.97;4962238;28;20653;-87
2022/08/14 08:50:02;;;;;;;27.90;20.83;;;;;;;19.16;100.00;98207.25;4962690;28;20236;-87
2022/08/14 08:52:28;;;;;;;30.10;19.67;;;;;;;19.74;100.00;98329.94;4970014;28;20200;-89
2022/08/14 08:54:53;;;;;;;28.10;20.60;;;;;;;20.17;100.00;98367.13;4984856;28;20222;-86
2022/08/14 08:57:19;;;;;;;26.83;19.00;;;;;;;19.92;100.00;98271.50;5004800;28;20654;-89
2022/08/14 08:59:46;;;;;;;21.70;15.70;;;;;;;18.67;100.00;98127.38;5005466;28;20198;-88
2022/08/14 09:02:11;;;;;;;20.93;15.23;;;;;;;18.36;100.00;98096.81;4991336;28;20246;-87
2022/08/14 09:04:43;;;;;;;26.50;15.47;;;;;;;20.21;100.00;98433.09;4976320;28;20231;-87
2022/08/14 09:07:09;;;;;;;20.27;14.63;;;;;;;18.86;100.00;98217.78;4977820;28;20214;-85
2022/08/14 09:09:50;;;;;;;23.47;15.37;;;;;;;20.58;100.00;98442.13;4977789;28;20235;-86
2022/08/14 09:12:16;;;;;;;23.03;14.80;;;;;;;20.88;100.00;98491.47;4978029;28;20591;-87
2022/08/14 09:14:42;;;;;;;21.03;14.63;;;;;;;18.72;100.00;98111.94;4961097;28;20207;-87
2022/08/14 09:17:08;;;;;;;21.13;14.53;;;;;;;19.75;100.00;98259.75;4984908;28;20187;-89
2022/08/14 09:19:35;;;;;;;29.97;18.30;;;;;;;19.11;100.00;98059.38;4976829;28;20742;-87
2022/08/14 09:22:02;;;;;;;27.83;16.63;;;;;;;19.00;100.00;98005.63;4976486;28;20183;-87
2022/08/14 09:24:28;;;;;;;25.80;16.20;;;;;;;21.75;100.00;98463.72;4975966;28;20180;-86
2022/08/14 09:26:54;;;;;;;22.77;14.93;;;;;;;20.77;100.00;98328.69;4981026;28;20191;-88
2022/08/14 09:29:20;;;;;;;19.20;14.03;;;;;;;20.47;100.00;98319.69;4978401;28;20183;-88
2022/08/14 09:31:49;;;;;;;26.60;16.33;;;;;;;21.84;100.00;98494.47;4975820;28;20191;-87
2022/08/14 09:34:34;;;;;;;18.50;13.67;;;;;;;20.13;100.00;98241.28;4979793;28;20242;-89
2022/08/14 09:37:25;;;;;;;21.07;14.30;;;;;;;21.56;100.00;98488.88;4978509;28;20255;-88
2022/08/14 09:40:23;;;;;;;19.57;14.27;;;;;;;20.92;100.00;98377.38;4918712;29;20197;-86
2022/08/14 09:43:10;;;;;;;20.23;14.93;;;;;;;20.49;100.00;98352.22;4917147;29;20197;-85
2022/08/14 09:45:46;;;;;;;30.93;17.60;;;;;;;20.95;100.00;98462.25;4919444;29;20201;-86
2022/08/14 09:48:18;;;;;;;36.80;22.30;;;;;;;17.78;100.00;98114.31;4930136;29;20196;-88
2022/08/14 09:50:52;;;;;;;38.03;22.80;;;;;;;19.34;100.00;98370.47;4912377;29;20193;-87
2022/08/14 09:53:31;;;;;;;31.87;21.33;;;;;;;17.90;100.00;98097.19;4922639;29;20944;-86
2022/08/14 09:55:58;;;;;;;35.57;22.10;;;;;;;20.03;100.00;98416.13;4926363;29;20203;-86
2022/08/14 09:58:38;;;;;;;31.57;20.73;;;;;;;19.56;100.00;98297.56;4926628;29;20200;-85
2022/08/14 10:01:11;;;;;;;32.80;20.03;;;;;;;18.34;100.00;98022.56;4898749;29;20205;-89
2022/08/14 10:03:45;;;;;;;29.17;18.93;;;;;;;19.55;100.00;98264.22;4902834;29;20264;-86
2022/08/14 10:06:28;;;;;;;32.43;18.83;;;;;;;18.53;100.00;98120.66;4910027;29;20296;-85
2022/08/14 10:09:12;;;;;;;27.70;18.97;;;;;;;20.72;100.00;98433.38;4910037;29;20194;-83
2022/08/14 10:11:39;;;;;;;27.77;18.77;;;;;;;20.83;100.00;98470.09;4915042;29;20280;-84
2022/08/14 10:14:13;;;;;;;29.30;18.87;;;;;;;20.85;100.00;98460.69;4922686;29;20199;-85
2022/08/14 10:16:44;;;;;;;38.07;24.80;;;;;;;20.24;100.00;98327.69;4941213;28;20192;-86
2022/08/14 10:19:14;;;;;;;54.37;32.20;;;;;;;19.06;100.00;98181.72;4969683;28;20192;-86
2022/08/14 10:21:46;;;;;;;40.40;26.73;;;;;;;20.43;100.00;98380.59;4958386;29;20255;-87
2022/08/14 10:24:38;;;;;;;41.07;26.13;;;;;;;20.89;100.00;98431.44;4953820;28;20350;-86
2022/08/14 10:27:17;;;;;;;36.07;24.00;;;;;;;19.03;100.00;98097.94;4955729;28;20258;-85
2022/08/14 10:29:54;;;;;;;39.70;24.30;;;;;;;18.50;100.00;98061.72;4954714;29;20795;-85
2022/08/14 10:32:29;;;;;;;41.20;25.33;;;;;;;16.04;100.00;97643.22;4966825;28;20164;-85
2022/08/14 10:35:15;;;;;;;40.03;25.33;;;;;;;18.32;100.00;98003.78;4969720;28;20192;-88
2022/08/14 10:37:55;;;;;;;41.97;26.70;;;;;;;20.78;100.00;98411.00;4966045;28;20189;-86
2022/08/14 10:40:27;;;;;;;38.43;24.33;;;;;;;16.84;100.00;97755.06;4957072;28;20224;-85
2022/08/14 10:43:01;;;;;;;37.97;24.73;;;;;;;16.77;100.00;97721.91;4945862;28;20211;-86
2022/08/14 10:45:36;;;;;;;34.40;22.57;;;;;;;16.70;100.00;97718.56;4961544;29;20168;-86
2022/08/14 10:48:17;;;;;;;36.70;21.37;;;;;;;18.87;100.00;98052.78;4961423;29;20537;-84
2022/08/14 10:51:00;;;;;;;43.13;24.90;;;;;;;19.89;100.00;98173.06;4959903;29;20547;-87
2022/08/14 10:53:36;;;;;;;40.57;23.17;;;;;;;20.12;100.00;98195.88;4965370;28;20176;-85
2022/08/14 10:56:07;;;;;;;37.57;22.17;;;;;;;17.93;100.00;97851.34;4983677;28;20175;-85
2022/08/14 10:58:32;;;;;;;35.80;22.47;;;;;;;19.38;100.00;98034.25;4997284;28;20168;-87
2022/08/14 11:00:59;;;;;;;37.43;23.20;;;;;;;20.14;100.00;98171.88;4999370;28;20524;-86
2022/08/14 11:03:38;;;;;;;54.83;29.00;;;;;;;19.49;100.00;98069.19;4983010;28;20295;-85
2022/08/14 11:06:18;;;;;;;34.97;23.40;;;;;;;20.65;100.00;98283.44;4990794;28;20199;-85
2022/08/14 11:08:44;;;;;;;39.97;26.00;;;;;;;18.36;100.00;97905.50;4978440;28;20203;-85
2022/08/14 11:11:11;;;;;;;34.33;24.77;;;;;;;20.82;100.00;98268.59;4979314;28;20172;-84
2022/08/14 11:13:42;;;;;;;35.30;24.77;;;;;;;19.96;100.00;98187.53;4961594;28;20656;-86
2022/08/14 11:16:09;;;;;;;33.47;22.13;;;;;;;20.58;100.00;98285.25;4978948;28;20160;-85
2022/08/14 11:18:36;;;;;;;30.33;21.63;;;;;;;19.12;100.00;98049.06;4980650;28;20195;-84
2022/08/14 11:21:05;;;;;;;32.53;21.90;;;;;;;21.43;100.00;98407.53;4978139;28;20544;-85
2022/08/14 11:23:38;;;;;;;32.43;21.83;;;;;;;19.64;100.00;98108.34;4960899;28;20550;-85
2022/08/14 11:26:05;;;;;;;31.47;21.87;;;;;;;20.23;100.00;98218.00;4976662;28;20156;-85
2022/08/14 11:28:38;;;;;;;31.10;21.30;;;;;;;21.10;100.00;98384.84;4976935;28;20243;-83
2022/08/14 11:31:04;;;;;;;28.40;20.97;;;;;;;20.94;100.00;98337.03;4960705;28;20303;-85
2022/08/14 11:33:31;;;;;;;29.47;21.57;;;;;;;21.35;100.00;98431.69;4975730;28;20218;-84
2022/08/14 11:36:00;;;;;;;30.10;21.80;;;;;;;21.33;100.00;98405.97;4976103;28;20163;-85
2022/08/14 11:38:28;;;;;;;29.63;20.40;;;;;;;20.88;100.00;98334.53;4976474;28;20215;-84